createdAt,value
2023-02-26T00:01:21.858Z,2.58
2023-02-26T00:04:24.502Z,2.58
2023-02-26T00:07:29.327Z,2.20
2023-02-26T00:10:32.688Z,2.70
2023-02-26T00:13:37.137Z,2.63
2023-02-26T00:16:40.126Z,2.80
2023-02-26T00:19:42.768Z,2.58
2023-02-26T00:22:45.792Z,3.17
2023-02-26T00:25:48.287Z,2.65
2023-02-26T00:28:51.505Z,2.87
2023-02-26T00:31:54.359Z,3.00
2023-02-26T00:34:58.578Z,2.95
2023-02-26T00:38:12.348Z,2.40
2023-02-26T00:41:15.842Z,2.72
2023-02-26T00:44:18.624Z,2.20
2023-02-26T00:47:49.361Z,2.70
2023-02-26T00:51:26.380Z,2.67
2023-02-26T00:54:30.458Z,2.70
2023-02-26T00:57:32.819Z,2.90
2023-02-26T01:00:35.438Z,3.10
2023-02-26T01:03:38.929Z,3.00
2023-02-26T01:06:54.252Z,3.10
2023-02-26T01:09:56.889Z,3.05
2023-02-26T01:12:59.948Z,2.83
2023-02-26T01:16:08.004Z,2.90
2023-02-26T01:19:29.516Z,2.50
2023-02-26T01:22:50.839Z,3.00
2023-02-26T01:25:58.449Z,2.30
2023-02-26T01:29:01.159Z,2.72
2023-02-26T01:32:12.747Z,2.77
2023-02-26T01:35:24.751Z,2.80
2023-02-26T01:38:39.684Z,2.90
2023-02-26T01:41:55.326Z,2.75
2023-02-26T01:45:03.251Z,2.83
2023-02-26T01:48:07.723Z,2.87
2023-02-26T01:51:10.435Z,2.80
2023-02-26T01:54:14.798Z,2.78
2023-02-26T01:57:20.739Z,3.20
2023-02-26T02:00:23.288Z,2.87
2023-02-26T02:03:32.111Z,2.63
2023-02-26T02:06:34.687Z,3.00
2023-02-26T02:09:37.715Z,3.00
2023-02-26T02:12:52.023Z,3.05
2023-02-26T02:16:07.835Z,3.20
2023-02-26T02:19:22.712Z,3.07
2023-02-26T02:22:59.709Z,3.60
2023-02-26T02:26:45.338Z,3.17
2023-02-26T02:30:33.035Z,3.40
2023-02-26T02:33:49.728Z,2.72
2023-02-26T02:36:58.371Z,2.30
2023-02-26T02:40:09.008Z,3.37
2023-02-26T02:43:22.638Z,3.00
2023-02-26T02:46:30.513Z,3.30
2023-02-26T02:50:03.879Z,2.87
2023-02-26T02:53:15.191Z,3.37
2023-02-26T02:56:29.380Z,3.00
2023-02-26T02:59:51.452Z,3.05
2023-02-26T03:03:03.462Z,3.33
2023-02-26T03:06:08.080Z,2.90
2023-02-26T03:09:11.141Z,3.40
2023-02-26T03:12:16.434Z,4.22
2023-02-26T03:15:31.659Z,3.20
2023-02-26T03:19:18.884Z,3.75
2023-02-26T03:22:46.420Z,3.65
2023-02-26T03:26:00.975Z,3.40
2023-02-26T03:29:25.145Z,3.60
2023-02-26T03:32:53.635Z,4.05
2023-02-26T03:36:01.134Z,3.40
2023-02-26T03:39:16.895Z,3.90
2023-02-26T03:42:37.434Z,2.40
2023-02-26T03:45:43.074Z,3.92
2023-02-26T03:48:51.325Z,4.15
2023-02-26T03:51:56.490Z,3.35
2023-02-26T03:55:16.167Z,3.15
2023-02-26T03:58:19.244Z,3.00
2023-02-26T04:01:27.404Z,3.17
2023-02-26T04:04:45.703Z,3.40
2023-02-26T04:07:49.741Z,4.00
2023-02-26T04:10:57.080Z,3.95
2023-02-26T04:13:59.596Z,3.60
2023-02-26T04:17:02.987Z,3.58
2023-02-26T04:20:12.655Z,3.35
2023-02-26T04:23:15.250Z,3.28
2023-02-26T04:26:17.813Z,3.83
2023-02-26T04:29:20.616Z,3.67
2023-02-26T04:32:23.141Z,3.90
2023-02-26T04:35:25.960Z,3.50
2023-02-26T04:38:28.838Z,4.28
2023-02-26T04:41:31.629Z,4.10
2023-02-26T04:44:34.021Z,3.50
2023-02-26T04:47:37.441Z,3.78
2023-02-26T04:50:39.782Z,3.80
2023-02-26T04:53:42.452Z,3.62
2023-02-26T04:56:45.067Z,3.62
2023-02-26T04:59:47.809Z,3.37
2023-02-26T05:02:50.150Z,3.40
2023-02-26T05:05:52.804Z,3.78
2023-02-26T05:08:55.188Z,3.72
2023-02-26T05:11:57.822Z,3.72
2023-02-26T05:15:00.423Z,2.67
2023-02-26T05:18:03.861Z,2.90
2023-02-26T05:21:06.588Z,3.30
2023-02-26T05:24:09.292Z,3.20
2023-02-26T05:27:11.973Z,4.43
2023-02-26T05:30:16.389Z,3.33
2023-02-26T05:33:19.557Z,3.53
2023-02-26T05:36:22.418Z,3.50
2023-02-26T05:39:25.029Z,4.28
2023-02-26T05:42:27.916Z,4.25
2023-02-26T05:45:30.253Z,3.83
2023-02-26T05:48:33.014Z,3.97
2023-02-26T05:51:37.006Z,4.03
2023-02-26T05:54:39.611Z,4.18
2023-02-26T05:57:42.352Z,4.00
2023-02-26T06:00:45.642Z,2.73
2023-02-26T06:03:48.343Z,3.85
2023-02-26T06:06:50.702Z,3.95
2023-02-26T06:09:53.359Z,4.05
2023-02-26T06:12:55.739Z,4.15
2023-02-26T06:15:58.475Z,4.50
2023-02-26T06:19:00.786Z,4.25
2023-02-26T06:22:03.567Z,4.20
2023-02-26T06:25:06.617Z,4.35
2023-02-26T06:28:09.531Z,4.25
2023-02-26T06:31:12.024Z,4.53
2023-02-26T06:34:14.848Z,4.50
2023-02-26T06:37:17.174Z,4.25
2023-02-26T06:40:20.965Z,4.95
2023-02-26T06:43:23.461Z,4.53
2023-02-26T06:46:26.565Z,4.13
2023-02-26T06:49:29.031Z,5.00
2023-02-26T06:52:31.694Z,4.37
2023-02-26T06:55:34.220Z,4.45
2023-02-26T06:58:36.829Z,4.12
2023-02-26T07:01:39.887Z,4.23
2023-02-26T07:04:42.588Z,4.60
2023-02-26T07:07:45.006Z,4.20
2023-02-26T07:10:49.528Z,3.60
2023-02-26T07:13:52.229Z,3.90
2023-02-26T07:16:54.931Z,3.37
2023-02-26T07:19:57.462Z,3.67
2023-02-26T07:23:00.154Z,4.15
2023-02-26T07:26:02.929Z,3.90
2023-02-26T07:29:05.653Z,3.80
2023-02-26T07:32:08.119Z,3.73
2023-02-26T07:35:13.357Z,3.67
2023-02-26T07:38:16.137Z,3.75
2023-02-26T07:41:19.399Z,3.87
2023-02-26T07:44:21.736Z,4.00
2023-02-26T07:47:24.524Z,3.80
2023-02-26T07:50:27.403Z,4.30
2023-02-26T07:53:30.179Z,3.90
2023-02-26T07:56:32.517Z,4.00
2023-02-26T07:59:35.361Z,3.80
2023-02-26T08:02:37.845Z,3.33
2023-02-26T08:05:40.517Z,3.65
2023-02-26T08:08:43.336Z,3.75
2023-02-26T08:11:46.039Z,3.78
2023-02-26T08:14:48.400Z,3.75
2023-02-26T08:17:53.396Z,3.83
2023-02-26T08:20:55.944Z,3.58
2023-02-26T08:23:58.615Z,3.95
2023-02-26T08:27:01.009Z,3.75
2023-02-26T08:30:04.948Z,3.92
2023-02-26T08:33:07.450Z,4.20
2023-02-26T08:36:11.118Z,4.30
2023-02-26T08:39:13.557Z,4.22
2023-02-26T08:42:17.148Z,3.60
2023-02-26T08:45:19.539Z,4.10
2023-02-26T08:48:23.018Z,3.50
2023-02-26T08:51:25.750Z,3.72
2023-02-26T08:54:28.670Z,3.40
2023-02-26T08:57:31.078Z,4.22
2023-02-26T09:00:34.548Z,3.67
2023-02-26T09:03:37.056Z,3.80
2023-02-26T09:06:39.746Z,4.32
2023-02-26T09:09:42.364Z,3.83
2023-02-26T09:12:45.516Z,3.90
2023-02-26T09:15:49.474Z,3.55
2023-02-26T09:18:52.177Z,4.20
2023-02-26T09:21:54.498Z,3.50
2023-02-26T09:24:57.467Z,3.60
2023-02-26T09:27:59.907Z,3.30
2023-02-26T09:31:02.927Z,3.78
2023-02-26T09:34:05.692Z,5.43
2023-02-26T09:37:09.537Z,3.70
2023-02-26T09:40:25.711Z,3.53
2023-02-26T09:43:57.566Z,3.30
2023-02-26T09:47:12.133Z,3.50
2023-02-26T09:50:26.230Z,4.63
2023-02-26T09:53:35.582Z,3.35
2023-02-26T09:56:38.624Z,3.92
2023-02-26T09:59:41.032Z,2.83
2023-02-26T10:03:00.987Z,3.83
2023-02-26T10:06:25.982Z,3.40
2023-02-26T10:09:29.214Z,3.30
2023-02-26T10:12:36.649Z,3.03
2023-02-26T10:15:43.611Z,2.42
2023-02-26T10:18:53.062Z,3.00
2023-02-26T10:22:21.602Z,2.53
2023-02-26T10:25:34.820Z,2.00
2023-02-26T10:28:44.223Z,2.85
2023-02-26T10:31:58.725Z,2.50
2023-02-26T10:35:09.116Z,3.30
2023-02-26T10:38:16.381Z,3.13
2023-02-26T10:41:25.464Z,2.40
2023-02-26T10:44:37.514Z,2.83
2023-02-26T10:48:24.763Z,2.80
2023-02-26T10:51:35.793Z,2.85
2023-02-26T10:54:47.482Z,3.40
2023-02-26T10:58:18.594Z,2.90
2023-02-26T11:01:24.454Z,3.10
2023-02-26T11:04:27.546Z,3.65
2023-02-26T11:07:32.472Z,3.65
2023-02-26T11:10:42.504Z,3.10
2023-02-26T11:13:44.864Z,3.62
2023-02-26T11:16:57.397Z,3.40
2023-02-26T11:20:05.378Z,3.83
2023-02-26T11:23:14.907Z,4.60
2023-02-26T11:26:19.291Z,4.13
2023-02-26T11:29:23.253Z,3.90
2023-02-26T11:32:37.873Z,3.75
2023-02-26T11:35:40.894Z,4.20
2023-02-26T11:38:52.890Z,4.12
2023-02-26T11:42:01.110Z,3.90
2023-02-26T11:45:06.004Z,4.53
2023-02-26T11:48:15.847Z,3.90
2023-02-26T11:51:25.944Z,3.92
2023-02-26T11:54:29.323Z,4.65
2023-02-26T11:57:32.960Z,4.20
2023-02-26T12:00:40.176Z,4.50
2023-02-26T12:03:48.600Z,5.03
2023-02-26T12:06:53.631Z,4.20
2023-02-26T12:09:56.440Z,4.12
2023-02-26T12:13:04.658Z,4.30
2023-02-26T12:16:27.611Z,4.25
2023-02-26T12:19:42.554Z,4.20
2023-02-26T12:22:57.422Z,4.50
2023-02-26T12:26:21.376Z,4.30
2023-02-26T12:29:48.249Z,4.70
2023-02-26T12:33:02.416Z,4.32
2023-02-26T12:36:22.909Z,4.05
2023-02-26T12:39:44.789Z,3.85
2023-02-26T12:42:54.233Z,3.97
2023-02-26T12:46:08.610Z,3.80
2023-02-26T12:49:36.190Z,3.78
2023-02-26T12:53:14.286Z,4.37
2023-02-26T12:56:57.343Z,3.70
2023-02-26T13:00:23.061Z,4.25
2023-02-26T13:03:50.113Z,4.30
2023-02-26T13:07:10.366Z,3.90
2023-02-26T13:10:15.859Z,3.70
2023-02-26T13:14:02.277Z,3.78
2023-02-26T13:17:40.247Z,4.22
2023-02-26T13:20:56.692Z,3.70
2023-02-26T13:24:24.311Z,4.03
2023-02-26T13:27:32.933Z,4.28
2023-02-26T13:30:47.216Z,4.30
2023-02-26T13:33:51.286Z,4.30
2023-02-26T13:36:54.342Z,5.50
2023-02-26T13:40:34.554Z,6.15
2023-02-26T13:44:13.034Z,7.90
2023-02-26T13:47:32.744Z,7.15
2023-02-26T13:50:57.302Z,7.03
2023-02-26T13:54:04.446Z,4.87
2023-02-26T13:57:30.033Z,4.50
2023-02-26T14:00:35.132Z,4.40
2023-02-26T14:04:19.011Z,3.35
2023-02-26T14:07:53.097Z,3.42
2023-02-26T14:10:57.980Z,3.90
2023-02-26T14:14:18.502Z,3.20
2023-02-26T14:17:29.003Z,3.55
2023-02-26T14:20:34.855Z,3.67
2023-02-26T14:23:38.252Z,3.30
2023-02-26T14:26:46.293Z,3.70
2023-02-26T14:30:10.324Z,3.65
2023-02-26T14:33:17.311Z,3.75
2023-02-26T14:36:34.469Z,3.80
2023-02-26T14:39:59.227Z,3.50
2023-02-26T14:43:05.785Z,4.07
2023-02-26T14:46:10.217Z,3.87
2023-02-26T14:49:20.130Z,4.05
2023-02-26T14:52:44.140Z,4.07
2023-02-26T14:56:00.246Z,4.43
2023-02-26T14:59:08.705Z,3.83
2023-02-26T15:02:30.829Z,4.75
2023-02-26T15:05:42.496Z,4.53
2023-02-26T15:08:57.182Z,3.60
2023-02-26T15:12:34.883Z,3.97
2023-02-26T15:15:58.181Z,3.67
2023-02-26T15:19:28.444Z,4.12
2023-02-26T15:23:02.717Z,4.50
2023-02-26T15:26:07.045Z,3.75
2023-02-26T15:29:13.586Z,4.35
2023-02-26T15:32:27.653Z,4.40
2023-02-26T15:35:32.357Z,4.72
2023-02-26T15:38:47.430Z,5.07
2023-02-26T15:41:52.357Z,4.62
2023-02-26T15:44:57.665Z,4.60
2023-02-26T15:48:04.833Z,4.30
2023-02-26T15:51:10.371Z,4.30
2023-02-26T15:54:19.650Z,3.83
2023-02-26T15:57:24.481Z,3.53
2023-02-26T16:00:27.301Z,3.78
2023-02-26T16:03:38.306Z,3.30
2023-02-26T16:06:45.994Z,3.60
2023-02-26T16:09:54.543Z,3.58
2023-02-26T16:12:57.032Z,3.10
2023-02-26T16:16:08.404Z,3.97
2023-02-26T16:19:35.883Z,3.70
2023-02-26T16:22:51.163Z,2.85
2023-02-26T16:25:58.659Z,3.05
2023-02-26T16:29:04.924Z,3.35
2023-02-26T16:32:12.805Z,3.55
2023-02-26T16:35:21.887Z,3.63
2023-02-26T16:38:27.404Z,4.07
2023-02-26T16:41:33.529Z,3.40
2023-02-26T16:44:43.766Z,3.10
2023-02-26T16:47:51.203Z,4.65
2023-02-26T16:51:07.831Z,3.53
2023-02-26T16:54:23.708Z,3.75
2023-02-26T16:57:35.560Z,4.00
2023-02-26T17:00:39.083Z,4.03
2023-02-26T17:03:44.167Z,3.70
2023-02-26T17:06:48.377Z,3.80
2023-02-26T17:09:53.063Z,4.03
2023-02-26T17:13:04.937Z,4.15
2023-02-26T17:16:12.109Z,4.00
2023-02-26T17:19:15.908Z,3.78
2023-02-26T17:22:24.483Z,4.10
2023-02-26T17:25:33.577Z,4.10
2023-02-26T17:28:40.584Z,4.32
2023-02-26T17:31:43.791Z,4.60
2023-02-26T17:34:46.210Z,4.32
2023-02-26T17:37:49.131Z,4.47
2023-02-26T17:40:55.501Z,4.22
2023-02-26T17:43:58.117Z,4.55
2023-02-26T17:47:00.442Z,4.60
2023-02-26T17:50:30.128Z,4.47
2023-02-26T17:53:40.760Z,4.33
2023-02-26T17:56:45.043Z,4.78
2023-02-26T17:59:48.868Z,4.45
2023-02-26T18:02:54.226Z,4.32
2023-02-26T18:05:57.976Z,4.65
2023-02-26T18:09:00.758Z,5.27
2023-02-26T18:12:03.776Z,5.20
2023-02-26T18:15:06.683Z,5.90
2023-02-26T18:18:13.748Z,4.75
2023-02-26T18:21:16.406Z,5.32
2023-02-26T18:24:19.196Z,4.30
2023-02-26T18:27:24.716Z,4.20
2023-02-26T18:30:31.208Z,16.27
2023-02-26T18:33:33.658Z,5.12
2023-02-26T18:36:38.092Z,5.18
2023-02-26T18:39:40.817Z,5.27
2023-02-26T18:42:43.892Z,4.90
2023-02-26T18:45:48.332Z,5.45
2023-02-26T18:48:51.538Z,5.15
2023-02-26T18:51:57.159Z,5.30
2023-02-26T18:55:00.918Z,5.23
2023-02-26T18:58:04.573Z,5.05
2023-02-26T19:01:07.412Z,5.82
2023-02-26T19:04:09.763Z,5.20
2023-02-26T19:07:12.384Z,6.03
2023-02-26T19:10:15.897Z,5.43
2023-02-26T19:13:18.757Z,5.50
2023-02-26T19:16:22.899Z,5.68
2023-02-26T19:19:25.659Z,5.62
2023-02-26T19:22:28.132Z,5.65
2023-02-26T19:25:31.244Z,5.53
2023-02-26T19:28:33.634Z,5.97
2023-02-26T19:31:39.125Z,5.82
2023-02-26T19:34:41.904Z,5.65
2023-02-26T19:37:46.328Z,5.37
2023-02-26T19:40:48.689Z,5.70
2023-02-26T19:43:51.266Z,6.00
2023-02-26T19:46:54.229Z,5.75
2023-02-26T19:49:56.904Z,5.60
2023-02-26T19:52:59.317Z,6.40
2023-02-26T19:56:05.794Z,5.63
2023-02-26T19:59:08.200Z,6.70
2023-02-26T20:02:11.006Z,7.50
2023-02-26T20:05:17.063Z,5.65
2023-02-26T20:08:21.731Z,7.97
2023-02-26T20:11:24.882Z,7.93
2023-02-26T20:14:27.502Z,8.30
2023-02-26T20:17:30.178Z,8.25
2023-02-26T20:20:32.518Z,8.45
2023-02-26T20:23:37.655Z,8.70
2023-02-26T20:26:40.179Z,8.53
2023-02-26T20:29:42.966Z,8.50
2023-02-26T20:32:45.392Z,8.48
2023-02-26T20:35:51.248Z,8.35
2023-02-26T20:38:53.623Z,7.55
2023-02-26T20:41:56.752Z,8.20
2023-02-26T20:44:59.160Z,6.85
2023-02-26T20:48:02.020Z,8.77
2023-02-26T20:51:06.345Z,7.15
2023-02-26T20:54:12.844Z,7.70
2023-02-26T20:57:15.880Z,7.03
2023-02-26T21:00:19.316Z,5.90
2023-02-26T21:03:21.708Z,5.97
2023-02-26T21:06:24.433Z,6.22
2023-02-26T21:09:26.959Z,5.80
2023-02-26T21:12:30.976Z,6.30
2023-02-26T21:15:33.719Z,4.47
2023-02-26T21:18:36.364Z,4.60
2023-02-26T21:21:38.676Z,4.40
2023-02-26T21:24:42.035Z,4.80
2023-02-26T21:27:44.654Z,4.33
2023-02-26T21:30:47.309Z,4.05
2023-02-26T21:33:49.665Z,3.87
2023-02-26T21:36:52.297Z,4.07
2023-02-26T21:39:54.986Z,4.05
2023-02-26T21:42:57.725Z,3.50
2023-02-26T21:46:01.417Z,3.70
2023-02-26T21:49:04.216Z,3.47
2023-02-26T21:52:07.784Z,3.42
2023-02-26T21:55:11.624Z,3.80
2023-02-26T21:58:13.995Z,3.73
2023-02-26T22:01:17.300Z,3.80
2023-02-26T22:04:19.956Z,3.47
2023-02-26T22:07:22.376Z,3.72
2023-02-26T22:10:25.074Z,3.62
2023-02-26T22:13:27.466Z,2.70
2023-02-26T22:16:30.174Z,2.62
2023-02-26T22:19:32.702Z,3.70
2023-02-26T22:22:37.184Z,3.10
2023-02-26T22:25:39.699Z,3.80
2023-02-26T22:28:42.349Z,3.60
2023-02-26T22:31:44.770Z,3.35
2023-02-26T22:34:47.495Z,3.70
2023-02-26T22:37:50.088Z,3.33
2023-02-26T22:40:53.434Z,3.22
2023-02-26T22:43:55.830Z,3.53
2023-02-26T22:46:58.511Z,3.25
2023-02-26T22:50:00.980Z,3.08
2023-02-26T22:53:22.581Z,3.20
2023-02-26T22:56:25.326Z,3.67
2023-02-26T22:59:27.998Z,3.17
2023-02-26T23:02:30.355Z,3.50
2023-02-26T23:05:32.983Z,3.17
2023-02-26T23:08:35.554Z,3.47
2023-02-26T23:11:38.334Z,3.37
2023-02-26T23:14:41.049Z,2.87
2023-02-26T23:17:43.740Z,3.35
2023-02-26T23:20:48.028Z,3.03
2023-02-26T23:23:50.630Z,3.00
2023-02-26T23:26:52.998Z,3.30
2023-02-26T23:29:55.747Z,3.37
2023-02-26T23:32:58.071Z,3.20
2023-02-26T23:36:00.735Z,2.90
2023-02-26T23:39:03.445Z,2.90
2023-02-26T23:42:06.245Z,3.28
2023-02-26T23:45:09.320Z,3.00
2023-02-26T23:48:11.995Z,2.85
2023-02-26T23:51:14.401Z,3.05
2023-02-26T23:54:17.006Z,3.10
2023-02-26T23:57:19.385Z,3.30
